sensor_id;sensor_type;location;lat;lon;timestamp;pressure;altitude;pressure_sealevel;temperature;humidity
69836;BME280;57132;51.972;4.450;2023-03-03T00:01:58;102515.03;;;0.66;100.00
69836;BME280;57132;51.972;4.450;2023-03-03T00:04:23;102506.31;;;0.61;100.00
69836;BME280;57132;51.972;4.450;2023-03-03T00:06:49;102507.16;;;0.59;100.00
69836;BME280;57132;51.972;4.450;2023-03-03T00:09:16;102506.31;;;0.57;100.00
69836;BME280;57132;51.972;4.450;2023-03-03T00:11:41;102504.56;;;0.53;100.00
69836;BME280;57132;51.972;4.450;2023-03-03T00:14:21;102511.59;;;0.49;100.00
69836;BME280;57132;51.972;4.450;2023-03-03T00:16:47;102509.84;;;0.48;100.00
69836;BME280;57132;51.972;4.450;2023-03-03T00:19:17;102515.94;;;0.47;100.00
69836;BME280;57132;51.972;4.450;2023-03-03T00:21:47;102510.72;;;0.48;100.00
69836;BME280;57132;51.972;4.450;2023-03-03T00:26:40;102515.97;;;0.48;100.00
69836;BME280;57132;51.972;4.450;2023-03-03T00:31:50;102515.09;;;0.45;100.00
69836;BME280;57132;51.972;4.450;2023-03-03T00:36:41;102511.59;;;0.35;100.00
69836;BME280;57132;51.972;4.450;2023-03-03T00:39:34;102522.97;;;0.31;100.00
69836;BME280;57132;51.972;4.450;2023-03-03T00:42:00;102530.88;;;0.23;100.00
69836;BME280;57132;51.972;4.450;2023-03-03T00:49:41;102520.38;;;-0.04;100.00
69836;BME280;57132;51.972;4.450;2023-03-03T00:52:16;102519.50;;;-0.12;100.00
69836;BME280;57132;51.972;4.450;2023-03-03T00:54:41;102512.53;;;-0.19;100.00
69836;BME280;57132;51.972;4.450;2023-03-03T00:57:07;102510.75;;;-0.22;100.00
69836;BME280;57132;51.972;4.450;2023-03-03T00:59:33;102519.50;;;-0.25;100.00
69836;BME280;57132;51.972;4.450;2023-03-03T01:01:58;102521.25;;;-0.30;100.00
69836;BME280;57132;51.972;4.450;2023-03-03T01:04:24;102518.63;;;-0.25;100.00
69836;BME280;57132;51.972;4.450;2023-03-03T01:06:50;102511.66;;;-0.18;100.00
69836;BME280;57132;51.972;4.450;2023-03-03T01:09:15;102508.13;;;-0.17;100.00
69836;BME280;57132;51.972;4.450;2023-03-03T01:11:41;102510.75;;;-0.10;100.00
69836;BME280;57132;51.972;4.450;2023-03-03T01:14:07;102515.13;;;-0.01;100.00
69836;BME280;57132;51.972;4.450;2023-03-03T01:16:32;102516.88;;;0.03;100.00
69836;BME280;57132;51.972;4.450;2023-03-03T01:18:58;102512.53;;;0.08;100.00
69836;BME280;57132;51.972;4.450;2023-03-03T01:21:23;102517.75;;;0.16;100.00
69836;BME280;57132;51.972;4.450;2023-03-03T01:23:49;102507.25;;;0.20;100.00
69836;BME280;57132;51.972;4.450;2023-03-03T01:26:14;102519.50;;;0.23;100.00
69836;BME280;57132;51.972;4.450;2023-03-03T01:28:46;102519.50;;;0.24;100.00
69836;BME280;57132;51.972;4.450;2023-03-03T01:31:11;102510.75;;;0.27;100.00
69836;BME280;57132;51.972;4.450;2023-03-03T01:33:37;102518.63;;;0.29;100.00
69836;BME280;57132;51.972;4.450;2023-03-03T01:36:03;102519.50;;;0.31;100.00
69836;BME280;57132;51.972;4.450;2023-03-03T01:38:29;102519.50;;;0.34;100.00
69836;BME280;57132;51.972;4.450;2023-03-03T01:40:58;102510.72;;;0.39;100.00
69836;BME280;57132;51.972;4.450;2023-03-03T01:43:28;102533.50;;;0.34;100.00
69836;BME280;57132;51.972;4.450;2023-03-03T01:51:01;102529.13;;;0.41;100.00
69836;BME280;57132;51.972;4.450;2023-03-03T01:53:55;102522.97;;;0.46;100.00
69836;BME280;57132;51.972;4.450;2023-03-03T01:56:22;102522.09;;;0.52;100.00
69836;BME280;57132;51.972;4.450;2023-03-03T01:59:13;102518.56;;;0.55;100.00
69836;BME280;57132;51.972;4.450;2023-03-03T02:01:40;102520.34;;;0.53;100.00
69836;BME280;57132;51.972;4.450;2023-03-03T02:04:07;102520.34;;;0.48;100.00
69836;BME280;57132;51.972;4.450;2023-03-03T02:06:36;102529.09;;;0.52;100.00
69836;BME280;57132;51.972;4.450;2023-03-03T02:09:26;102519.44;;;0.51;100.00
69836;BME280;57132;51.972;4.450;2023-03-03T02:11:58;102522.09;;;0.49;100.00
69836;BME280;57132;51.972;4.450;2023-03-03T02:14:24;102510.72;;;0.48;100.00
69836;BME280;57132;51.972;4.450;2023-03-03T02:16:50;102518.59;;;0.50;100.00
69836;BME280;57132;51.972;4.450;2023-03-03T02:19:24;102521.22;;;0.47;100.00
69836;BME280;57132;51.972;4.450;2023-03-03T02:21:54;102514.22;;;0.46;100.00
69836;BME280;57132;51.972;4.450;2023-03-03T02:24:48;102510.69;;;0.47;100.00
69836;BME280;57132;51.972;4.450;2023-03-03T02:27:15;102515.94;;;0.47;100.00
69836;BME280;57132;51.972;4.450;2023-03-03T02:29:41;102513.31;;;0.47;100.00
69836;BME280;57132;51.972;4.450;2023-03-03T02:32:06;102511.56;;;0.47;100.00
69836;BME280;57132;51.972;4.450;2023-03-03T02:34:44;102508.97;;;0.49;100.00
69836;BME280;57132;51.972;4.450;2023-03-03T02:37:10;102508.97;;;0.49;100.00
69836;BME280;57132;51.972;4.450;2023-03-03T02:39:36;102506.31;;;0.51;100.00
69836;BME280;57132;51.972;4.450;2023-03-03T02:42:07;102506.31;;;0.51;100.00
69836;BME280;57132;51.972;4.450;2023-03-03T02:44:36;102507.19;;;0.51;100.00
69836;BME280;57132;51.972;4.450;2023-03-03T02:47:02;102506.34;;;0.52;100.00
69836;BME280;57132;51.972;4.450;2023-03-03T02:49:30;102506.31;;;0.54;100.00
69836;BME280;57132;51.972;4.450;2023-03-03T02:51:57;102506.31;;;0.54;100.00
69836;BME280;57132;51.972;4.450;2023-03-03T02:54:25;102504.56;;;0.54;100.00
69836;BME280;57132;51.972;4.450;2023-03-03T02:56:51;102507.19;;;0.51;100.00
69836;BME280;57132;51.972;4.450;2023-03-03T02:59:17;102501.09;;;0.52;100.00
69836;BME280;57132;51.972;4.450;2023-03-03T03:01:43;102508.94;;;0.54;100.00
69836;BME280;57132;51.972;4.450;2023-03-03T03:04:11;102508.06;;;0.55;100.00
69836;BME280;57132;51.972;4.450;2023-03-03T03:06:38;102510.69;;;0.53;100.00
69836;BME280;57132;51.972;4.450;2023-03-03T03:09:05;102513.31;;;0.50;100.00
69836;BME280;57132;51.972;4.450;2023-03-03T03:11:32;102511.59;;;0.44;100.00
69836;BME280;57132;51.972;4.450;2023-03-03T03:13:59;102513.34;;;0.48;100.00
69836;BME280;57132;51.972;4.450;2023-03-03T03:16:25;102507.22;;;0.48;100.00
69836;BME280;57132;51.972;4.450;2023-03-03T03:18:50;102508.97;;;0.49;100.00
69836;BME280;57132;51.972;4.450;2023-03-03T03:21:16;102510.69;;;0.53;100.00
69836;BME280;57132;51.972;4.450;2023-03-03T03:23:41;102520.31;;;0.60;100.00
69836;BME280;57132;51.972;4.450;2023-03-03T03:26:08;102518.56;;;0.61;100.00
69836;BME280;57132;51.972;4.450;2023-03-03T03:28:33;102521.19;;;0.65;100.00
69836;BME280;57132;51.972;4.450;2023-03-03T03:30:59;102520.28;;;0.71;100.00
69836;BME280;57132;51.972;4.450;2023-03-03T03:33:25;102519.41;;;0.72;100.00
69836;BME280;57132;51.972;4.450;2023-03-03T03:35:53;102522.03;;;0.73;100.00
69836;BME280;57132;51.972;4.450;2023-03-03T03:38:20;102524.66;;;0.80;100.00
69836;BME280;57132;51.972;4.450;2023-03-03T03:40:46;102529.88;;;0.87;100.00
69836;BME280;57132;51.972;4.450;2023-03-03T03:43:11;102529.88;;;0.92;100.00
69836;BME280;57132;51.972;4.450;2023-03-03T03:45:36;102526.38;;;0.91;100.00
69836;BME280;57132;51.972;4.450;2023-03-03T03:48:02;102529.00;;;0.91;100.00
69836;BME280;57132;51.972;4.450;2023-03-03T03:50:27;102533.34;;;0.91;100.00
69836;BME280;57132;51.972;4.450;2023-03-03T03:52:53;102535.97;;;0.94;100.00
69836;BME280;57132;51.972;4.450;2023-03-03T03:55:18;102536.84;;;0.94;100.00
69836;BME280;57132;51.972;4.450;2023-03-03T03:57:43;102532.47;;;0.95;100.00
69836;BME280;57132;51.972;4.450;2023-03-03T04:00:10;102528.09;;;0.97;100.00
69836;BME280;57132;51.972;4.450;2023-03-03T04:02:36;102534.22;;;0.97;100.00
69836;BME280;57132;51.972;4.450;2023-03-03T04:05:02;102535.94;;;0.98;100.00
69836;BME280;57132;51.972;4.450;2023-03-03T04:07:28;102540.34;;;1.00;100.00
69836;BME280;57132;51.972;4.450;2023-03-03T04:09:53;102536.84;;;1.01;100.00
69836;BME280;57132;51.972;4.450;2023-03-03T04:12:19;102536.84;;;1.01;100.00
69836;BME280;57132;51.972;4.450;2023-03-03T04:14:44;102535.09;;;0.98;100.00
69836;BME280;57132;51.972;4.450;2023-03-03T04:17:17;102538.59;;;0.97;100.00
69836;BME280;57132;51.972;4.450;2023-03-03T04:19:43;102535.09;;;1.00;100.00
69836;BME280;57132;51.972;4.450;2023-03-03T04:22:08;102537.72;;;1.00;100.00
69836;BME280;57132;51.972;4.450;2023-03-03T04:24:34;102540.34;;;1.00;100.00
69836;BME280;57132;51.972;4.450;2023-03-03T04:27:00;102537.72;;;1.00;100.00
69836;BME280;57132;51.972;4.450;2023-03-03T04:29:25;102543.84;;;1.03;100.00
69836;BME280;57132;51.972;4.450;2023-03-03T04:31:51;102551.69;;;1.06;100.00
69836;BME280;57132;51.972;4.450;2023-03-03T04:34:16;102541.19;;;1.06;100.00
69836;BME280;57132;51.972;4.450;2023-03-03T04:36:41;102548.22;;;1.07;100.00
69836;BME280;57132;51.972;4.450;2023-03-03T04:39:07;102545.59;;;1.07;100.00
69836;BME280;57132;51.972;4.450;2023-03-03T04:41:32;102546.47;;;1.08;100.00
69836;BME280;57132;51.972;4.450;2023-03-03T04:43:58;102546.44;;;1.09;100.00
69836;BME280;57132;51.972;4.450;2023-03-03T04:46:23;102546.44;;;1.12;100.00
69836;BME280;57132;51.972;4.450;2023-03-03T04:48:49;102546.44;;;1.12;100.00
69836;BME280;57132;51.972;4.450;2023-03-03T04:51:14;102550.81;;;1.13;100.00
69836;BME280;57132;51.972;4.450;2023-03-03T04:53:40;102554.31;;;1.14;100.00
69836;BME280;57132;51.972;4.450;2023-03-03T04:56:06;102560.44;;;1.14;100.00
69836;BME280;57132;51.972;4.450;2023-03-03T04:58:32;102550.81;;;1.12;100.00
69836;BME280;57132;51.972;4.450;2023-03-03T05:00:57;102555.19;;;1.13;100.00
69836;BME280;57132;51.972;4.450;2023-03-03T05:03:23;102559.59;;;1.12;100.00
69836;BME280;57132;51.972;4.450;2023-03-03T05:05:49;102562.22;;;1.12;100.00
69836;BME280;57132;51.972;4.450;2023-03-03T05:08:14;102556.06;;;1.13;100.00
69836;BME280;57132;51.972;4.450;2023-03-03T05:10:40;102568.31;;;1.14;100.00
69836;BME280;57132;51.972;4.450;2023-03-03T05:13:06;102567.47;;;1.12;100.00
69836;BME280;57132;51.972;4.450;2023-03-03T05:15:32;102567.47;;;1.12;100.00
69836;BME280;57132;51.972;4.450;2023-03-03T05:17:58;102567.47;;;1.11;100.00
69836;BME280;57132;51.972;4.450;2023-03-03T05:20:24;102566.59;;;1.13;100.00
69836;BME280;57132;51.972;4.450;2023-03-03T05:22:50;102568.31;;;1.14;100.00
69836;BME280;57132;51.972;4.450;2023-03-03T05:25:17;102563.94;;;1.18;100.00
69836;BME280;57132;51.972;4.450;2023-03-03T05:27:43;102560.44;;;1.16;100.00
69836;BME280;57132;51.972;4.450;2023-03-03T05:30:10;102551.66;;;1.14;100.00
69836;BME280;57132;51.972;4.450;2023-03-03T05:32:35;102562.19;;;1.17;100.00
69836;BME280;57132;51.972;4.450;2023-03-03T05:35:01;102558.66;;;1.18;100.00
69836;BME280;57132;51.972;4.450;2023-03-03T05:37:27;102562.19;;;1.17;100.00
69836;BME280;57132;51.972;4.450;2023-03-03T05:39:52;102562.16;;;1.18;100.00
69836;BME280;57132;51.972;4.450;2023-03-03T05:42:18;102560.44;;;1.19;100.00
69836;BME280;57132;51.972;4.450;2023-03-03T05:44:43;102561.31;;;1.18;100.00
69836;BME280;57132;51.972;4.450;2023-03-03T05:47:09;102559.56;;;1.17;100.00
69836;BME280;57132;51.972;4.450;2023-03-03T05:49:34;102556.06;;;1.15;100.00
69836;BME280;57132;51.972;4.450;2023-03-03T05:52:00;102557.81;;;1.14;100.00
69836;BME280;57132;51.972;4.450;2023-03-03T05:54:26;102558.69;;;1.16;100.00
69836;BME280;57132;51.972;4.450;2023-03-03T05:56:51;102549.91;;;1.14;100.00
69836;BME280;57132;51.972;4.450;2023-03-03T05:59:17;102558.69;;;1.19;100.00
69836;BME280;57132;51.972;4.450;2023-03-03T06:01:44;102557.81;;;1.19;100.00
69836;BME280;57132;51.972;4.450;2023-03-03T06:04:09;102561.31;;;1.19;100.00
69836;BME280;57132;51.972;4.450;2023-03-03T06:06:35;102564.81;;;1.20;100.00
69836;BME280;57132;51.972;4.450;2023-03-03T06:09:01;102567.41;;;1.21;100.00
69836;BME280;57132;51.972;4.450;2023-03-03T06:11:27;102563.03;;;1.23;100.00
69836;BME280;57132;51.972;4.450;2023-03-03T06:13:53;102567.41;;;1.26;100.00
69836;BME280;57132;51.972;4.450;2023-03-03T06:16:18;102569.16;;;1.27;100.00
69836;BME280;57132;51.972;4.450;2023-03-03T06:18:44;102574.41;;;1.29;100.00
69836;BME280;57132;51.972;4.450;2023-03-03T06:21:10;102577.94;;;1.31;100.00
69836;BME280;57132;51.972;4.450;2023-03-03T06:23:36;102588.44;;;1.32;100.00
69836;BME280;57132;51.972;4.450;2023-03-03T06:26:01;102579.66;;;1.33;100.00
69836;BME280;57132;51.972;4.450;2023-03-03T06:28:26;102582.28;;;1.33;100.00
69836;BME280;57132;51.972;4.450;2023-03-03T06:30:53;102585.78;;;1.35;100.00
69836;BME280;57132;51.972;4.450;2023-03-03T06:33:19;102584.91;;;1.36;100.00
69836;BME280;57132;51.972;4.450;2023-03-03T06:35:49;102585.78;;;1.35;100.00
69836;BME280;57132;51.972;4.450;2023-03-03T06:38:15;102588.41;;;1.37;100.00
69836;BME280;57132;51.972;4.450;2023-03-03T06:40:41;102593.66;;;1.38;100.00
69836;BME280;57132;51.972;4.450;2023-03-03T06:43:06;102592.78;;;1.38;100.00
69836;BME280;57132;51.972;4.450;2023-03-03T06:45:32;102589.28;;;1.37;100.00
69836;BME280;57132;51.972;4.450;2023-03-03T06:47:57;102596.28;;;1.37;100.00
69836;BME280;57132;51.972;4.450;2023-03-03T06:50:22;102594.56;;;1.36;100.00
69836;BME280;57132;51.972;4.450;2023-03-03T06:53:06;102599.81;;;1.37;100.00
69836;BME280;57132;51.972;4.450;2023-03-03T06:55:34;102606.78;;;1.41;100.00
69836;BME280;57132;51.972;4.450;2023-03-03T06:58:00;102613.81;;;1.42;100.00
69836;BME280;57132;51.972;4.450;2023-03-03T07:00:26;102614.69;;;1.44;100.00
69836;BME280;57132;51.972;4.450;2023-03-03T07:02:57;102615.56;;;1.45;100.00
69836;BME280;57132;51.972;4.450;2023-03-03T07:05:25;102612.91;;;1.46;100.00
69836;BME280;57132;51.972;4.450;2023-03-03T07:07:51;102618.16;;;1.46;100.00
69836;BME280;57132;51.972;4.450;2023-03-03T07:10:27;102619.91;;;1.49;100.00
69836;BME280;57132;51.972;4.450;2023-03-03T07:12:53;102623.44;;;1.48;100.00
69836;BME280;57132;51.972;4.450;2023-03-03T07:15:25;102619.03;;;1.50;100.00
69836;BME280;57132;51.972;4.450;2023-03-03T07:17:55;102622.53;;;1.54;100.00
69836;BME280;57132;51.972;4.450;2023-03-03T07:20:31;102629.53;;;1.56;100.00
69836;BME280;57132;51.972;4.450;2023-03-03T07:22:59;102636.53;;;1.57;100.00
69836;BME280;57132;51.972;4.450;2023-03-03T07:25:29;102634.78;;;1.58;100.00
69836;BME280;57132;51.972;4.450;2023-03-03T07:28:46;102634.78;;;1.58;100.00
69836;BME280;57132;51.972;4.450;2023-03-03T07:30:46;102642.66;;;1.62;100.00
69836;BME280;57132;51.972;4.450;2023-03-03T07:33:25;102641.78;;;1.66;100.00
69836;BME280;57132;51.972;4.450;2023-03-03T07:35:53;102634.75;;;1.65;100.00
69836;BME280;57132;51.972;4.450;2023-03-03T07:40:53;102637.34;;;1.76;100.00
69836;BME280;57132;51.972;4.450;2023-03-03T07:43:36;102654.00;;;1.83;100.00
69836;BME280;57132;51.972;4.450;2023-03-03T07:46:19;102643.44;;;1.84;100.00
69836;BME280;57132;51.972;4.450;2023-03-03T07:48:47;102649.53;;;1.89;100.00
69836;BME280;57132;51.972;4.450;2023-03-03T07:51:29;102653.03;;;1.94;100.00
69836;BME280;57132;51.972;4.450;2023-03-03T07:54:35;102648.63;;;1.98;100.00
69836;BME280;57132;51.972;4.450;2023-03-03T07:57:23;102649.47;;;2.03;100.00
69836;BME280;57132;51.972;4.450;2023-03-03T07:59:49;102656.44;;;2.09;100.00
69836;BME280;57132;51.972;4.450;2023-03-03T08:04:52;102663.38;;;2.24;100.00
69836;BME280;57132;51.972;4.450;2023-03-03T08:07:20;102666.84;;;2.29;100.00
69836;BME280;57132;51.972;4.450;2023-03-03T08:10:07;102660.63;;;2.40;100.00
69836;BME280;57132;51.972;4.450;2023-03-03T08:12:39;102672.00;;;2.44;100.00
69836;BME280;57132;51.972;4.450;2023-03-03T08:15:22;102678.09;;;2.52;100.00
69836;BME280;57132;51.972;4.450;2023-03-03T08:17:49;102677.16;;;2.62;100.00
69836;BME280;57132;51.972;4.450;2023-03-03T08:20:43;102675.31;;;2.70;100.00
69836;BME280;57132;51.972;4.450;2023-03-03T08:23:10;102689.34;;;2.72;100.00
69836;BME280;57132;51.972;4.450;2023-03-03T08:25:36;102689.34;;;2.72;100.00
69836;BME280;57132;51.972;4.450;2023-03-03T08:28:02;102698.16;;;2.71;100.00
69836;BME280;57132;51.972;4.450;2023-03-03T08:30:27;102686.72;;;2.74;100.00
69836;BME280;57132;51.972;4.450;2023-03-03T08:32:53;102689.31;;;2.79;100.00
69836;BME280;57132;51.972;4.450;2023-03-03T08:35:18;102691.06;;;2.80;100.00
69836;BME280;57132;51.972;4.450;2023-03-03T08:37:43;102697.97;;;2.94;100.00
69836;BME280;57132;51.972;4.450;2023-03-03T08:40:09;102698.75;;;3.03;100.00
69836;BME280;57132;51.972;4.450;2023-03-03T08:42:35;102694.34;;;3.06;100.00
69836;BME280;57132;51.972;4.450;2023-03-03T08:45:00;102701.34;;;3.07;100.00
69836;BME280;57132;51.972;4.450;2023-03-03T08:47:25;102704.00;;;3.07;100.00
69836;BME280;57132;51.972;4.450;2023-03-03T08:49:51;102698.69;;;3.10;100.00
69836;BME280;57132;51.972;4.450;2023-03-03T08:52:21;102700.38;;;3.17;100.00
69836;BME280;57132;51.972;4.450;2023-03-03T08:54:46;102702.03;;;3.25;100.00
69836;BME280;57132;51.972;4.450;2023-03-03T08:57:12;102698.47;;;3.32;100.00
69836;BME280;57132;51.972;4.450;2023-03-03T08:59:37;102710.69;;;3.40;100.00
69836;BME280;57132;51.972;4.450;2023-03-03T09:02:07;102709.66;;;3.54;100.00
69836;BME280;57132;51.972;4.450;2023-03-03T09:04:32;102712.88;;;3.79;100.00
69836;BME280;57132;51.972;4.450;2023-03-03T09:06:58;102706.38;;;4.06;100.00
69836;BME280;57132;51.972;4.450;2023-03-03T09:09:23;102715.72;;;4.30;100.00
69836;BME280;57132;51.972;4.450;2023-03-03T09:11:49;102715.53;;;4.42;100.00
69836;BME280;57132;51.972;4.450;2023-03-03T09:14:17;102707.44;;;4.51;100.00
69836;BME280;57132;51.972;4.450;2023-03-03T09:16:50;102709.72;;;4.76;100.00
69836;BME280;57132;51.972;4.450;2023-03-03T09:19:30;102707.97;;;4.75;100.00
69836;BME280;57132;51.972;4.450;2023-03-03T09:22:23;102705.25;;;4.79;100.00
69836;BME280;57132;51.972;4.450;2023-03-03T09:24:52;102709.13;;;4.57;100.00
69836;BME280;57132;51.972;4.450;2023-03-03T09:27:29;102706.47;;;4.58;100.00
69836;BME280;57132;51.972;4.450;2023-03-03T09:30:00;102708.16;;;4.62;100.00
69836;BME280;57132;51.972;4.450;2023-03-03T09:32:37;102710.66;;;5.23;100.00
69836;BME280;57132;51.972;4.450;2023-03-03T09:37:51;102711.06;;;6.69;100.00
69836;BME280;57132;51.972;4.450;2023-03-03T09:43:36;102712.25;;;8.48;100.00
69836;BME280;57132;51.972;4.450;2023-03-03T09:48:54;102709.16;;;8.04;99.42
69836;BME280;57132;51.972;4.450;2023-03-03T10:00:35;102721.56;;;9.15;91.92
69836;BME280;57132;51.972;4.450;2023-03-03T10:05:48;102714.47;;;9.64;87.98
69836;BME280;57132;51.972;4.450;2023-03-03T10:17:14;102712.34;;;11.47;67.06
69836;BME280;57132;51.972;4.450;2023-03-03T10:22:26;102718.03;;;10.11;74.81
69836;BME280;57132;51.972;4.450;2023-03-03T10:25:31;102707.25;;;9.91;79.47
69836;BME280;57132;51.972;4.450;2023-03-03T10:30:46;102715.69;;;11.12;71.23
69836;BME280;57132;51.972;4.450;2023-03-03T10:33:34;102709.94;;;10.36;70.02
69836;BME280;57132;51.972;4.450;2023-03-03T10:36:17;102707.78;;;10.88;77.41
69836;BME280;57132;51.972;4.450;2023-03-03T10:38:54;102715.88;;;11.89;67.10
69836;BME280;57132;51.972;4.450;2023-03-03T10:44:32;102715.56;;;11.95;64.28
69836;BME280;57132;51.972;4.450;2023-03-03T10:52:41;102718.25;;;12.51;60.52
69836;BME280;57132;51.972;4.450;2023-03-03T10:58:31;102723.59;;;14.22;53.45
69836;BME280;57132;51.972;4.450;2023-03-03T11:01:06;102718.66;;;14.46;52.78
69836;BME280;57132;51.972;4.450;2023-03-03T11:03:47;102711.06;;;13.89;54.84
69836;BME280;57132;51.972;4.450;2023-03-03T11:11:46;102704.81;;;11.16;62.64
69836;BME280;57132;51.972;4.450;2023-03-03T11:14:27;102703.06;;;12.87;58.63
69836;BME280;57132;51.972;4.450;2023-03-03T11:17:05;102704.31;;;14.93;52.68
69836;BME280;57132;51.972;4.450;2023-03-03T11:19:44;102708.66;;;16.80;46.47
69836;BME280;57132;51.972;4.450;2023-03-03T11:22:41;102706.53;;;16.98;43.47
69836;BME280;57132;51.972;4.450;2023-03-03T11:25:31;102713.41;;;17.54;43.31
69836;BME280;57132;51.972;4.450;2023-03-03T11:37:03;102698.38;;;17.88;40.63
69836;BME280;57132;51.972;4.450;2023-03-03T11:39:26;102696.75;;;17.73;42.00
69836;BME280;57132;51.972;4.450;2023-03-03T11:44:44;102699.72;;;18.19;39.13
69836;BME280;57132;51.972;4.450;2023-03-03T11:55:36;102685.81;;;12.39;52.13
69836;BME280;57132;51.972;4.450;2023-03-03T12:01:20;102680.91;;;9.81;60.09
69836;BME280;57132;51.972;4.450;2023-03-03T12:04:06;102674.25;;;8.96;66.71
69836;BME280;57132;51.972;4.450;2023-03-03T12:11:39;102676.81;;;7.88;77.41
69836;BME280;57132;51.972;4.450;2023-03-03T12:17:03;102673.41;;;7.83;76.23
69836;BME280;57132;51.972;4.450;2023-03-03T12:41:31;102659.19;;;7.56;73.44
69836;BME280;57132;51.972;4.450;2023-03-03T12:44:38;102653.16;;;7.50;74.32
69836;BME280;57132;51.972;4.450;2023-03-03T12:47:15;102653.88;;;7.55;73.49
69836;BME280;57132;51.972;4.450;2023-03-03T12:55:42;102647.91;;;8.06;71.92
69836;BME280;57132;51.972;4.450;2023-03-03T13:04:03;102647.13;;;9.82;58.25
69836;BME280;57132;51.972;4.450;2023-03-03T13:06:45;102648.78;;;9.84;57.00
69836;BME280;57132;51.972;4.450;2023-03-03T13:09:26;102645.25;;;9.60;59.27
69836;BME280;57132;51.972;4.450;2023-03-03T13:12:21;102652.66;;;9.29;63.49
69836;BME280;57132;51.972;4.450;2023-03-03T13:20:33;102646.66;;;8.18;72.09
69836;BME280;57132;51.972;4.450;2023-03-03T13:23:12;102649.38;;;7.88;74.00
69836;BME280;57132;51.972;4.450;2023-03-03T13:25:57;102643.69;;;7.71;77.03
69836;BME280;57132;51.972;4.450;2023-03-03T13:28:34;102633.63;;;7.52;77.34
69836;BME280;57132;51.972;4.450;2023-03-03T13:31:14;102639.66;;;7.57;79.33
69836;BME280;57132;51.972;4.450;2023-03-03T13:33:53;102637.00;;;7.57;79.46
69836;BME280;57132;51.972;4.450;2023-03-03T13:36:23;102636.78;;;7.63;79.03
69836;BME280;57132;51.972;4.450;2023-03-03T13:38:52;102641.53;;;7.54;76.99
69836;BME280;57132;51.972;4.450;2023-03-03T13:44:10;102641.44;;;7.57;77.05
69836;BME280;57132;51.972;4.450;2023-03-03T13:55:43;102638.59;;;7.93;73.69
69836;BME280;57132;51.972;4.450;2023-03-03T14:00:57;102631.03;;;7.79;72.30
69836;BME280;57132;51.972;4.450;2023-03-03T14:06:14;102629.75;;;7.62;73.79
69836;BME280;57132;51.972;4.450;2023-03-03T14:19:47;102620.84;;;7.34;75.30
69836;BME280;57132;51.972;4.450;2023-03-03T14:22:16;102622.59;;;7.35;74.47
69836;BME280;57132;51.972;4.450;2023-03-03T14:24:59;102631.59;;;7.29;75.39
69836;BME280;57132;51.972;4.450;2023-03-03T14:27:32;102629.91;;;7.27;77.50
69836;BME280;57132;51.972;4.450;2023-03-03T14:29:58;102626.59;;;7.19;78.34
69836;BME280;57132;51.972;4.450;2023-03-03T14:32:26;102624.22;;;7.08;79.10
69836;BME280;57132;51.972;4.450;2023-03-03T14:34:59;102622.75;;;6.98;79.31
69836;BME280;57132;51.972;4.450;2023-03-03T14:37:27;102620.25;;;6.92;79.64
69836;BME280;57132;51.972;4.450;2023-03-03T14:40:12;102625.59;;;6.90;80.96
69836;BME280;57132;51.972;4.450;2023-03-03T14:42:46;102620.44;;;6.84;81.15
69836;BME280;57132;51.972;4.450;2023-03-03T14:45:32;102622.31;;;6.80;81.32
69836;BME280;57132;51.972;4.450;2023-03-03T14:48:09;102623.19;;;6.81;81.09
69836;BME280;57132;51.972;4.450;2023-03-03T14:50:41;102614.47;;;6.76;79.67
69836;BME280;57132;51.972;4.450;2023-03-03T14:55:46;102618.25;;;6.67;82.63
69836;BME280;57132;51.972;4.450;2023-03-03T14:58:37;102610.97;;;6.75;83.15
69836;BME280;57132;51.972;4.450;2023-03-03T15:01:13;102614.47;;;6.77;83.52
69836;BME280;57132;51.972;4.450;2023-03-03T15:06:36;102618.09;;;6.73;84.10
69836;BME280;57132;51.972;4.450;2023-03-03T15:09:33;102614.72;;;6.67;83.72
69836;BME280;57132;51.972;4.450;2023-03-03T15:12:19;102612.22;;;6.60;84.08
69836;BME280;57132;51.972;4.450;2023-03-03T15:14:49;102607.91;;;6.56;84.76
69836;BME280;57132;51.972;4.450;2023-03-03T15:22:23;102615.53;;;6.34;83.79
69836;BME280;57132;51.972;4.450;2023-03-03T15:25:17;102611.00;;;6.39;84.03
69836;BME280;57132;51.972;4.450;2023-03-03T15:28:26;102609.13;;;6.43;83.98
69836;BME280;57132;51.972;4.450;2023-03-03T15:31:00;102610.00;;;6.44;84.15
69836;BME280;57132;51.972;4.450;2023-03-03T15:41:51;102594.47;;;6.28;84.28
69836;BME280;57132;51.972;4.450;2023-03-03T15:47:38;102584.66;;;6.32;83.54
69836;BME280;57132;51.972;4.450;2023-03-03T15:50:11;102591.00;;;6.26;83.97
69836;BME280;57132;51.972;4.450;2023-03-03T15:52:46;102585.88;;;6.19;84.16
69836;BME280;57132;51.972;4.450;2023-03-03T16:03:34;102587.97;;;6.04;81.99
69836;BME280;57132;51.972;4.450;2023-03-03T16:06:16;102589.03;;;5.97;80.97
69836;BME280;57132;51.972;4.450;2023-03-03T16:09:12;102588.22;;;5.94;82.32
69836;BME280;57132;51.972;4.450;2023-03-03T16:11:50;102591.81;;;5.91;83.15
69836;BME280;57132;51.972;4.450;2023-03-03T16:14:24;102585.81;;;5.83;84.95
69836;BME280;57132;51.972;4.450;2023-03-03T16:17:04;102591.25;;;5.77;86.51
69836;BME280;57132;51.972;4.450;2023-03-03T16:27:57;102597.78;;;5.60;88.62
69836;BME280;57132;51.972;4.450;2023-03-03T16:30:30;102595.25;;;5.54;88.04
69836;BME280;57132;51.972;4.450;2023-03-03T16:33:21;102597.19;;;5.46;88.06
69836;BME280;57132;51.972;4.450;2023-03-03T16:38:31;102600.16;;;5.32;87.34
69836;BME280;57132;51.972;4.450;2023-03-03T16:41:00;102604.59;;;5.32;87.95
69836;BME280;57132;51.972;4.450;2023-03-03T16:43:49;102601.22;;;5.24;87.71
69836;BME280;57132;51.972;4.450;2023-03-03T16:46:47;102601.38;;;5.14;87.60
69836;BME280;57132;51.972;4.450;2023-03-03T16:49:30;102598.94;;;5.05;88.22